createdAt,value
2022-09-23T00:00:42.837Z,101874.22
2022-09-23T00:03:10.298Z,101876.00
2022-09-23T00:05:38.191Z,101879.53
2022-09-23T00:08:06.451Z,101875.16
2022-09-23T00:10:33.257Z,101870.75
2022-09-23T00:12:59.940Z,101867.22
2022-09-23T00:15:26.765Z,101870.75
2022-09-23T00:17:53.401Z,101861.91
2022-09-23T00:20:20.383Z,101866.41
2022-09-23T00:22:47.188Z,101868.16
2022-09-23T00:25:13.868Z,101862.00
2022-09-23T00:27:42.085Z,101859.34
2022-09-23T00:30:09.923Z,101862.91
2022-09-23T00:32:37.979Z,101859.38
2022-09-23T00:35:05.151Z,101859.38
2022-09-23T00:37:32.127Z,101853.19
2022-09-23T00:39:59.868Z,101856.72
2022-09-23T00:42:26.820Z,101854.06
2022-09-23T00:44:58.450Z,101852.34
2022-09-23T00:47:32.841Z,101854.13
2022-09-23T00:50:20.816Z,101850.59
2022-09-23T00:52:49.239Z,101855.91
2022-09-23T00:55:19.931Z,101853.25
2022-09-23T00:57:47.763Z,101852.38
2022-09-23T01:00:14.599Z,101844.41
2022-09-23T01:02:41.417Z,101845.31
2022-09-23T01:05:08.608Z,101841.78
2022-09-23T01:07:35.434Z,101840.00
2022-09-23T01:10:02.786Z,101828.53
2022-09-23T01:12:48.180Z,101838.25
2022-09-23T01:15:33.488Z,101825.88
2022-09-23T01:18:12.708Z,101828.56
2022-09-23T01:21:16.961Z,101824.13
2022-09-23T01:23:58.841Z,101827.69
2022-09-23T01:26:48.564Z,101818.84
2022-09-23T01:29:58.921Z,101826.81
2022-09-23T01:32:34.612Z,101828.59
2022-09-23T01:35:19.681Z,101818.84
2022-09-23T01:37:56.230Z,101816.19
2022-09-23T01:40:34.076Z,101821.53
2022-09-23T01:43:08.884Z,101818.88
2022-09-23T01:45:47.436Z,101817.09
2022-09-23T01:48:19.478Z,101816.25
2022-09-23T01:50:57.815Z,101808.31
2022-09-23T01:53:34.975Z,101809.19
2022-09-23T01:56:29.256Z,101810.97
2022-09-23T01:59:16.184Z,101808.34
2022-09-23T02:01:47.718Z,101813.66
2022-09-23T02:04:48.191Z,101804.81
2022-09-23T02:07:21.013Z,101803.94
2022-09-23T02:09:53.889Z,101802.19
2022-09-23T02:12:21.493Z,101802.19
2022-09-23T02:14:58.738Z,101796.00
2022-09-23T02:17:32.127Z,101788.06
2022-09-23T02:20:02.329Z,101792.50
2022-09-23T02:22:46.715Z,101790.72
2022-09-23T02:25:13.794Z,101790.72
2022-09-23T02:27:57.807Z,101777.47
2022-09-23T02:30:29.001Z,101778.34
2022-09-23T02:33:08.666Z,101785.44
2022-09-23T02:35:41.332Z,101774.81
2022-09-23T02:38:45.292Z,101773.06
2022-09-23T02:41:26.679Z,101772.19
2022-09-23T02:44:00.070Z,101772.19
2022-09-23T02:46:27.072Z,101757.19
2022-09-23T02:48:56.972Z,101760.72
2022-09-23T02:51:28.993Z,101748.34
2022-09-23T02:53:57.481Z,101749.25
2022-09-23T02:56:24.503Z,101752.78
2022-09-23T02:58:52.973Z,101744.81
2022-09-23T03:01:32.738Z,101746.59
2022-09-23T03:04:22.684Z,101749.25
2022-09-23T03:07:06.593Z,101748.38
2022-09-23T03:09:56.118Z,101748.38
2022-09-23T03:12:38.284Z,101750.16
2022-09-23T03:15:14.408Z,101740.47
2022-09-23T03:17:48.084Z,101744.88
2022-09-23T03:20:21.738Z,101736.94
2022-09-23T03:23:01.479Z,101731.63
2022-09-23T03:25:31.747Z,101735.16
2022-09-23T03:27:59.748Z,101735.19
2022-09-23T03:30:27.216Z,101729.88
2022-09-23T03:32:55.186Z,101733.44
2022-09-23T03:35:24.374Z,101732.53
2022-09-23T03:37:55.396Z,101731.66
2022-09-23T03:40:30.646Z,101726.38
2022-09-23T03:42:58.292Z,101724.59
2022-09-23T03:45:28.370Z,101712.25
2022-09-23T03:47:55.279Z,101719.31
2022-09-23T03:50:22.425Z,101719.34
2022-09-23T03:52:50.675Z,101717.56
2022-09-23T03:55:18.720Z,101712.25
2022-09-23T03:57:45.956Z,101708.72
2022-09-23T04:00:13.955Z,101700.75
2022-09-23T04:02:40.770Z,101712.28
2022-09-23T04:05:11.491Z,101707.00
2022-09-23T04:07:38.152Z,101711.41
2022-09-23T04:10:06.046Z,101710.53
2022-09-23T04:12:32.677Z,101703.47
2022-09-23T04:14:59.330Z,101699.06
2022-09-23T04:17:25.985Z,101703.50
2022-09-23T04:19:52.605Z,101703.50
2022-09-23T04:22:19.280Z,101701.72
2022-09-23T04:24:45.909Z,101692.03
2022-09-23T04:27:12.595Z,101691.16
2022-09-23T04:29:39.238Z,101689.38
2022-09-23T04:32:05.924Z,101680.53
2022-09-23T04:34:32.627Z,101691.13
2022-09-23T04:36:59.295Z,101684.09
2022-09-23T04:39:25.949Z,101683.19
2022-09-23T04:41:52.598Z,101680.56
2022-09-23T04:44:20.533Z,101686.72
2022-09-23T04:46:48.290Z,101685.84
2022-09-23T04:49:15.857Z,101681.44
2022-09-23T04:51:43.717Z,101683.22
2022-09-23T04:54:11.890Z,101681.47
2022-09-23T04:56:39.527Z,101682.34
2022-09-23T04:59:07.269Z,101690.28
2022-09-23T05:01:35.293Z,101680.56
2022-09-23T05:04:08.042Z,101688.53
2022-09-23T05:06:35.387Z,101692.91
2022-09-23T05:09:04.066Z,101687.66
2022-09-23T05:11:31.696Z,101693.81
2022-09-23T05:13:58.779Z,101691.16
2022-09-23T05:16:26.782Z,101693.81
2022-09-23T05:18:54.076Z,101692.94
2022-09-23T05:21:23.111Z,101693.81
2022-09-23T05:23:55.510Z,101698.25
2022-09-23T05:26:25.635Z,101693.81
2022-09-23T05:28:53.271Z,101701.78
2022-09-23T05:31:22.179Z,101693.81
2022-09-23T05:33:54.165Z,101688.50
2022-09-23T05:36:22.134Z,101694.69
2022-09-23T05:38:50.138Z,101689.41
2022-09-23T05:41:17.764Z,101689.41
2022-09-23T05:43:44.646Z,101686.72
2022-09-23T05:46:15.918Z,101681.44
2022-09-23T05:48:43.085Z,101690.25
2022-09-23T05:51:23.070Z,101686.72
2022-09-23T05:53:55.223Z,101677.00
2022-09-23T05:56:23.617Z,101683.16
2022-09-23T05:58:51.765Z,101684.91
2022-09-23T06:01:25.039Z,101687.56
2022-09-23T06:03:53.434Z,101685.78
2022-09-23T06:06:22.326Z,101684.03
2022-09-23T06:08:49.002Z,101681.34
2022-09-23T06:11:15.752Z,101685.75
2022-09-23T06:13:42.544Z,101684.81
2022-09-23T06:16:11.924Z,101683.03
2022-09-23T06:18:40.390Z,101686.56
2022-09-23T06:21:07.744Z,101681.19
2022-09-23T06:23:37.417Z,101688.19
2022-09-23T06:26:08.148Z,101681.97
2022-09-23T06:28:36.506Z,101678.41
2022-09-23T06:31:12.862Z,101679.28
2022-09-23T06:33:40.484Z,101680.16
2022-09-23T06:36:07.891Z,101681.03
2022-09-23T06:38:34.926Z,101688.06
2022-09-23T06:41:04.909Z,101688.00
2022-09-23T06:43:31.836Z,101687.09
2022-09-23T06:46:00.758Z,101695.94
2022-09-23T06:48:28.403Z,101697.72
2022-09-23T06:50:58.964Z,101698.53
2022-09-23T06:53:25.647Z,101696.69
2022-09-23T06:56:03.045Z,101698.47
2022-09-23T06:58:30.631Z,101694.72
2022-09-23T07:01:06.767Z,101694.72
2022-09-23T07:03:34.120Z,101694.72
2022-09-23T07:06:00.909Z,101704.34
2022-09-23T07:08:28.887Z,101697.16
2022-09-23T07:10:57.735Z,101697.97
2022-09-23T07:13:25.071Z,101704.03
2022-09-23T07:15:55.879Z,101701.34
2022-09-23T07:18:25.754Z,101698.69
2022-09-23T07:20:53.369Z,101705.72
2022-09-23T07:23:20.808Z,101692.31
2022-09-23T07:25:50.452Z,101692.31
2022-09-23T07:28:17.811Z,101695.63
2022-09-23T07:30:56.629Z,101699.69
2022-09-23T07:33:32.119Z,101688.75
2022-09-23T07:35:59.520Z,101692.03
2022-09-23T07:38:30.493Z,101691.81
2022-09-23T07:41:05.044Z,101692.53
2022-09-23T07:43:34.651Z,101690.47
2022-09-23T07:46:03.762Z,101685.66
2022-09-23T07:48:34.310Z,101685.19
2022-09-23T07:51:06.452Z,101685.25
2022-09-23T07:53:33.528Z,101690.59
2022-09-23T07:56:00.256Z,101683.66
2022-09-23T07:58:26.935Z,101686.66
2022-09-23T08:00:53.801Z,101688.88
2022-09-23T08:03:20.825Z,101687.84
2022-09-23T08:05:47.810Z,101695.88
2022-09-23T08:08:14.548Z,101688.84
2022-09-23T08:10:41.389Z,101684.13
2022-09-23T08:13:08.125Z,101679.38
2022-09-23T08:15:34.988Z,101682.44
2022-09-23T08:18:01.974Z,101681.59
2022-09-23T08:20:47.982Z,101673.19
2022-09-23T08:23:16.858Z,101669.56
2022-09-23T08:25:47.096Z,101676.38
2022-09-23T08:28:18.833Z,101670.78
2022-09-23T08:30:48.247Z,101674.81
2022-09-23T08:33:19.598Z,101664.97
2022-09-23T08:35:49.501Z,101668.19
2022-09-23T08:38:16.163Z,101672.84
2022-09-23T08:40:44.673Z,101659.66
2022-09-23T08:43:24.342Z,101657.00
2022-09-23T08:45:51.640Z,101656.03
2022-09-23T08:48:29.346Z,101651.06
2022-09-23T08:51:01.989Z,101646.19
2022-09-23T08:53:36.601Z,101644.44
2022-09-23T08:56:07.289Z,101651.59
2022-09-23T08:58:42.922Z,101647.31
2022-09-23T09:01:21.296Z,101644.75
2022-09-23T09:03:52.120Z,101645.59
2022-09-23T09:06:23.338Z,101651.47
2022-09-23T09:08:57.117Z,101645.53
2022-09-23T09:11:32.133Z,101639.47
2022-09-23T09:14:20.062Z,101640.41
2022-09-23T09:16:59.899Z,101640.69
2022-09-23T09:19:53.530Z,101637.44
2022-09-23T09:22:23.408Z,101641.53
2022-09-23T09:24:50.647Z,101634.69
2022-09-23T09:27:17.363Z,101641.09
2022-09-23T09:29:49.870Z,101636.59
2022-09-23T09:32:56.008Z,101631.41
2022-09-23T09:35:36.903Z,101623.03
2022-09-23T09:38:05.791Z,101622.22
2022-09-23T09:40:34.735Z,101617.31
2022-09-23T09:43:04.735Z,101610.44
2022-09-23T09:45:57.947Z,101607.22
2022-09-23T09:48:38.057Z,101597.88
2022-09-23T09:51:22.443Z,101601.44
2022-09-23T09:53:52.165Z,101598.88
2022-09-23T09:56:23.140Z,101592.44
2022-09-23T09:58:52.546Z,101591.44
2022-09-23T10:01:23.496Z,101582.03
2022-09-23T10:03:55.535Z,101581.97
2022-09-23T10:06:32.624Z,101580.88
2022-09-23T10:09:04.782Z,101581.25
2022-09-23T10:11:32.450Z,101573.09
2022-09-23T10:14:13.092Z,101577.16
2022-09-23T10:16:42.188Z,101587.09
2022-09-23T10:19:28.888Z,101569.06
2022-09-23T10:22:14.771Z,101571.06
2022-09-23T10:24:48.243Z,101564.06
2022-09-23T10:27:14.932Z,101571.81
2022-09-23T10:29:47.616Z,101565.91
2022-09-23T10:32:27.549Z,101557.78
2022-09-23T10:34:58.400Z,101555.97
2022-09-23T10:37:32.756Z,101554.63
2022-09-23T10:40:19.536Z,101552.69
2022-09-23T10:43:33.855Z,101556.28
2022-09-23T10:46:23.260Z,101553.06
2022-09-23T10:49:13.141Z,101555.34
2022-09-23T10:51:48.960Z,101553.84
2022-09-23T10:54:36.452Z,101553.91
2022-09-23T10:58:02.286Z,101550.31
2022-09-23T11:00:42.901Z,101555.09
2022-09-23T11:03:36.291Z,101547.03
2022-09-23T11:06:13.328Z,101546.16
2022-09-23T11:09:06.726Z,101550.72
2022-09-23T11:12:24.284Z,101531.34
2022-09-23T11:15:02.703Z,101528.19
2022-09-23T11:18:04.209Z,101529.78
2022-09-23T11:20:45.730Z,101527.75
2022-09-23T11:23:20.261Z,101511.91
2022-09-23T11:25:50.683Z,101512.63
2022-09-23T11:28:36.607Z,101517.06
2022-09-23T11:31:54.063Z,101510.97
2022-09-23T11:34:34.247Z,101499.03
2022-09-23T11:37:09.298Z,101500.34
2022-09-23T11:39:42.767Z,101497.06
2022-09-23T11:42:14.835Z,101493.38
2022-09-23T11:44:48.578Z,101488.94
2022-09-23T11:47:21.263Z,101480.41
2022-09-23T11:50:02.653Z,101477.94
2022-09-23T11:52:37.023Z,101485.75
2022-09-23T11:55:27.726Z,101476.09
2022-09-23T11:57:56.163Z,101472.97
2022-09-23T12:00:29.818Z,101463.28
2022-09-23T12:03:13.140Z,101464.69
2022-09-23T12:05:48.851Z,101457.19
2022-09-23T12:08:29.197Z,101459.72
2022-09-23T12:11:06.159Z,101445.22
2022-09-23T12:14:01.535Z,101451.75
2022-09-23T12:16:44.935Z,101444.28
2022-09-23T12:19:34.717Z,101438.97
2022-09-23T12:22:16.883Z,101444.81
2022-09-23T12:24:54.460Z,101444.78
2022-09-23T12:27:43.930Z,101440.81
2022-09-23T12:30:19.590Z,101440.97
2022-09-23T12:32:46.507Z,101431.75
2022-09-23T12:35:41.712Z,101426.00
2022-09-23T12:38:30.570Z,101431.78
2022-09-23T12:40:57.349Z,101427.41
2022-09-23T12:43:34.968Z,101428.69
2022-09-23T12:46:23.751Z,101421.72
2022-09-23T12:49:00.664Z,101425.41
2022-09-23T12:51:34.835Z,101419.09
2022-09-23T12:54:04.564Z,101424.16
2022-09-23T12:56:34.294Z,101412.31
2022-09-23T12:59:55.948Z,101418.06
2022-09-23T13:02:30.079Z,101409.53
2022-09-23T13:05:17.837Z,101411.13
2022-09-23T13:07:49.406Z,101405.13
2022-09-23T13:10:24.610Z,101405.28
2022-09-23T13:12:52.696Z,101399.03
2022-09-23T13:15:29.144Z,101390.03
2022-09-23T13:18:54.856Z,101392.25
2022-09-23T13:21:44.994Z,101383.66
2022-09-23T13:24:16.712Z,101379.97
2022-09-23T13:27:01.770Z,101384.69
2022-09-23T13:29:36.377Z,101376.28
2022-09-23T13:32:03.586Z,101375.63
2022-09-23T13:34:34.834Z,101375.63
2022-09-23T13:37:22.418Z,101377.75
2022-09-23T13:39:49.806Z,101370.56
2022-09-23T13:42:35.941Z,101370.06
2022-09-23T13:45:02.636Z,101358.00
2022-09-23T13:47:30.818Z,101352.31
2022-09-23T13:49:57.607Z,101351.94
2022-09-23T13:52:25.468Z,101352.38
2022-09-23T13:54:53.135Z,101342.75
2022-09-23T13:57:29.304Z,101340.72
2022-09-23T14:00:17.615Z,101344.50
2022-09-23T14:02:44.601Z,101337.25
2022-09-23T14:05:22.350Z,101334.63
2022-09-23T14:07:50.405Z,101336.47
2022-09-23T14:10:20.829Z,101332.09
2022-09-23T14:12:49.562Z,101324.91
2022-09-23T14:15:17.746Z,101330.69
2022-09-23T14:18:17.831Z,101327.31
2022-09-23T14:20:49.124Z,101323.81
2022-09-23T14:23:16.641Z,101320.66
2022-09-23T14:25:44.838Z,101317.97
2022-09-23T14:28:16.909Z,101310.81
2022-09-23T14:30:46.520Z,101309.19
2022-09-23T14:33:16.547Z,101308.28
2022-09-23T14:35:46.864Z,101309.94
2022-09-23T14:38:39.889Z,101307.53
2022-09-23T14:41:23.930Z,101299.63
2022-09-23T14:43:58.999Z,101306.00
2022-09-23T14:46:30.936Z,101306.94
2022-09-23T14:49:06.150Z,101297.28
2022-09-23T14:51:47.086Z,101300.84
2022-09-23T14:54:25.309Z,101298.19
2022-09-23T14:56:52.406Z,101291.44
2022-09-23T15:00:02.651Z,101289.38
2022-09-23T15:02:38.162Z,101288.44
2022-09-23T15:05:22.621Z,101292.06
2022-09-23T15:07:56.436Z,101285.88
2022-09-23T15:10:27.791Z,101286.09
2022-09-23T15:12:56.761Z,101280.75
2022-09-23T15:15:28.140Z,101283.47
2022-09-23T15:17:55.238Z,101282.34
2022-09-23T15:20:24.984Z,101282.34
2022-09-23T15:22:54.568Z,101278.78
2022-09-23T15:25:23.278Z,101280.88
2022-09-23T15:28:17.902Z,101277.50
2022-09-23T15:30:45.586Z,101270.44
2022-09-23T15:33:14.117Z,101264.34
2022-09-23T15:35:47.592Z,101271.81
2022-09-23T15:38:14.496Z,101271.22
2022-09-23T15:40:41.592Z,101263.47
2022-09-23T15:43:21.461Z,101258.50
2022-09-23T15:45:52.896Z,101270.34
2022-09-23T15:48:22.800Z,101271.41
2022-09-23T15:50:50.788Z,101272.53
2022-09-23T15:53:21.749Z,101274.63
2022-09-23T15:55:51.561Z,101279.31
2022-09-23T15:58:22.284Z,101271.41
2022-09-23T16:00:55.977Z,101273.47
2022-09-23T16:03:28.791Z,101269.22
2022-09-23T16:06:00.744Z,101259.56
2022-09-23T16:08:29.370Z,101270.50
2022-09-23T16:10:59.176Z,101273.53
2022-09-23T16:13:26.120Z,101272.75
2022-09-23T16:15:52.825Z,101264.84
2022-09-23T16:18:20.300Z,101270.22
2022-09-23T16:20:47.823Z,101264.13
2022-09-23T16:23:35.723Z,101256.31
2022-09-23T16:26:05.760Z,101261.84
2022-09-23T16:28:32.458Z,101254.97
2022-09-23T16:30:59.347Z,101256.94
2022-09-23T16:33:27.569Z,101253.59
2022-09-23T16:35:54.876Z,101253.78
2022-09-23T16:38:21.619Z,101246.81
2022-09-23T16:40:48.494Z,101248.91
2022-09-23T16:43:15.376Z,101253.91
2022-09-23T16:45:42.295Z,101248.94
2022-09-23T16:48:11.513Z,101248.28
2022-09-23T16:50:38.237Z,101245.06
2022-09-23T16:53:04.993Z,101248.31
2022-09-23T16:55:31.967Z,101250.50
2022-09-23T16:57:58.688Z,101249.25
2022-09-23T17:00:44.386Z,101247.03
2022-09-23T17:03:31.238Z,101247.56
2022-09-23T17:05:58.179Z,101239.97
2022-09-23T17:08:25.191Z,101236.03
2022-09-23T17:10:58.663Z,101234.75
2022-09-23T17:13:29.665Z,101239.72
2022-09-23T17:15:56.869Z,101232.16
2022-09-23T17:18:23.945Z,101226.28
2022-09-23T17:21:01.751Z,101228.53
2022-09-23T17:23:29.127Z,101229.84
2022-09-23T17:25:55.868Z,101235.66
2022-09-23T17:28:22.897Z,101238.63
2022-09-23T17:31:00.505Z,101241.66
2022-09-23T17:33:28.817Z,101241.31
2022-09-23T17:35:57.287Z,101237.16
2022-09-23T17:38:28.674Z,101240.13
2022-09-23T17:40:57.639Z,101236.94
2022-09-23T17:43:27.178Z,101246.00
2022-09-23T17:45:56.326Z,101243.50
2022-09-23T17:48:24.764Z,101234.75
2022-09-23T17:50:59.113Z,101235.94
2022-09-23T17:53:26.358Z,101230.84
2022-09-23T17:56:01.217Z,101236.53
2022-09-23T17:58:30.190Z,101233.06
2022-09-23T18:00:57.476Z,101235.13
2022-09-23T18:03:25.905Z,101247.75
2022-09-23T18:05:52.810Z,101241.56
2022-09-23T18:08:20.015Z,101247.00
2022-09-23T18:10:46.755Z,101250.59
2022-09-23T18:13:13.573Z,101247.13
2022-09-23T18:15:40.770Z,101243.78
2022-09-23T18:18:07.784Z,101243.78
2022-09-23T18:20:34.553Z,101242.00
2022-09-23T18:23:01.248Z,101239.38
2022-09-23T18:25:39.259Z,101245.72
2022-09-23T18:28:06.687Z,101243.03
2022-09-23T18:30:36.553Z,101237.72
2022-09-23T18:33:03.535Z,101237.78
2022-09-23T18:35:30.782Z,101241.41
2022-09-23T18:37:57.836Z,101231.66
2022-09-23T18:40:24.689Z,101235.31
2022-09-23T18:42:51.474Z,101228.25
2022-09-23T18:45:18.235Z,101231.88
2022-09-23T18:48:03.684Z,101232.06
2022-09-23T18:50:39.629Z,101235.00
2022-09-23T18:53:06.666Z,101231.63
2022-09-23T18:55:35.190Z,101233.56
2022-09-23T18:58:02.497Z,101232.84
2022-09-23T19:00:29.287Z,101226.78
2022-09-23T19:02:56.067Z,101227.88
2022-09-23T19:05:22.725Z,101229.78
2022-09-23T19:07:49.753Z,101232.63
2022-09-23T19:10:16.614Z,101227.34
2022-09-23T19:12:43.832Z,101232.91
2022-09-23T19:15:10.845Z,101236.69
2022-09-23T19:17:37.628Z,101224.41
2022-09-23T19:20:04.814Z,101228.16
2022-09-23T19:22:32.956Z,101228.34
2022-09-23T19:24:59.915Z,101226.66
2022-09-23T19:27:26.623Z,101224.16
2022-09-23T19:29:53.472Z,101224.34
2022-09-23T19:32:20.377Z,101215.72
2022-09-23T19:34:47.059Z,101218.47
2022-09-23T19:37:14.003Z,101216.84
2022-09-23T19:39:41.001Z,101218.69
2022-09-23T19:42:07.888Z,101212.56
2022-09-23T19:44:39.301Z,101219.78
2022-09-23T19:47:06.183Z,101215.50
2022-09-23T19:49:36.323Z,101224.53
2022-09-23T19:52:03.039Z,101222.81
2022-09-23T19:54:29.763Z,101219.44
2022-09-23T19:56:56.476Z,101222.22
2022-09-23T19:59:23.418Z,101220.44
2022-09-23T20:01:50.359Z,101218.81
2022-09-23T20:04:17.340Z,101220.72
2022-09-23T20:06:44.204Z,101214.56
2022-09-23T20:09:10.849Z,101212.94
2022-09-23T20:11:37.539Z,101212.22
2022-09-23T20:14:06.279Z,101212.34
2022-09-23T20:16:35.484Z,101214.25
2022-09-23T20:19:04.276Z,101211.72
2022-09-23T20:21:31.394Z,101208.22
2022-09-23T20:23:58.293Z,101202.06
2022-09-23T20:26:44.068Z,101200.38
2022-09-23T20:29:11.412Z,101196.00
2022-09-23T20:31:40.533Z,101200.59
2022-09-23T20:34:08.373Z,101197.13
2022-09-23T20:36:35.580Z,101195.44
2022-09-23T20:39:06.140Z,101198.09
2022-09-23T20:41:37.511Z,101199.09
2022-09-23T20:44:07.131Z,101194.66
2022-09-23T20:46:34.514Z,101194.72
2022-09-23T20:49:02.125Z,101191.34
2022-09-23T20:51:28.985Z,101193.13
2022-09-23T20:53:55.719Z,101189.56
2022-09-23T20:56:23.628Z,101197.66
2022-09-23T20:58:52.618Z,101193.19
2022-09-23T21:01:21.240Z,101189.69
2022-09-23T21:03:50.151Z,101190.63
2022-09-23T21:06:18.831Z,101190.66
2022-09-23T21:08:45.970Z,101180.03
2022-09-23T21:11:15.206Z,101181.81
2022-09-23T21:13:47.205Z,101174.75
2022-09-23T21:16:16.202Z,101183.63
2022-09-23T21:18:43.795Z,101172.94
2022-09-23T21:21:12.254Z,101175.66
2022-09-23T21:23:39.748Z,101176.66
2022-09-23T21:26:08.167Z,101172.16
2022-09-23T21:28:37.640Z,101181.09
2022-09-23T21:31:06.597Z,101167.72
2022-09-23T21:33:33.855Z,101174.78
2022-09-23T21:36:06.394Z,101167.72
2022-09-23T21:38:37.389Z,101164.19
2022-09-23T21:41:06.825Z,101166.78
2022-09-23T21:43:35.418Z,101169.44
2022-09-23T21:46:04.521Z,101165.03
2022-09-23T21:48:36.343Z,101170.44
2022-09-23T21:51:08.451Z,101165.03
2022-09-23T21:53:38.615Z,101172.13
2022-09-23T21:56:10.553Z,101164.13
2022-09-23T21:58:38.541Z,101162.38
2022-09-23T22:01:14.751Z,101162.38
2022-09-23T22:03:43.641Z,101167.72
2022-09-23T22:06:15.109Z,101157.19
2022-09-23T22:08:43.157Z,101157.09
2022-09-23T22:11:33.567Z,101164.25
2022-09-23T22:14:02.615Z,101161.59
2022-09-23T22:16:29.994Z,101161.50
2022-09-23T22:18:58.713Z,101156.28
2022-09-23T22:21:27.006Z,101157.16
2022-09-23T22:23:55.223Z,101155.44
2022-09-23T22:26:21.880Z,101151.84
2022-09-23T22:29:07.252Z,101146.59
2022-09-23T22:31:52.588Z,101151.13
2022-09-23T22:34:48.432Z,101144.88
2022-09-23T22:37:14.022Z,101147.53
2022-09-23T22:39:40.800Z,101143.09
2022-09-23T22:42:07.522Z,101133.31
2022-09-23T22:44:34.199Z,101133.31
2022-09-23T22:47:01.706Z,101134.25
2022-09-23T22:49:30.032Z,101129.88
2022-09-23T22:51:56.749Z,101125.50
2022-09-23T22:54:23.419Z,101134.41
2022-09-23T22:56:50.949Z,101138.88
2022-09-23T22:59:17.616Z,101130.09
2022-09-23T23:01:44.316Z,101135.28
2022-09-23T23:04:12.549Z,101129.22
2022-09-23T23:06:39.399Z,101132.72
2022-09-23T23:09:11.384Z,101130.94
2022-09-23T23:11:42.469Z,101129.19
2022-09-23T23:14:14.218Z,101137.19
2022-09-23T23:16:41.022Z,101126.50
2022-09-23T23:19:10.106Z,101124.75
2022-09-23T23:21:37.267Z,101122.06
2022-09-23T23:24:05.003Z,101122.19
2022-09-23T23:26:33.865Z,101115.22
2022-09-23T23:29:01.554Z,101117.81
2022-09-23T23:31:29.327Z,101117.94
2022-09-23T23:33:56.027Z,101112.63
2022-09-23T23:36:23.745Z,101114.38
2022-09-23T23:38:51.845Z,101106.41
2022-09-23T23:41:22.714Z,101111.81
2022-09-23T23:43:58.398Z,101113.66
2022-09-23T23:46:26.745Z,101107.53
2022-09-23T23:48:54.680Z,101105.75
2022-09-23T23:51:21.773Z,101108.53
2022-09-23T23:53:49.034Z,101103.19
2022-09-23T23:56:18.253Z,101105.03
2022-09-23T23:58:45.715Z,101110.44
